Stephenville, Canada
Current Conditions -  °F | °C
As of 1:00 AM on Monday 22 Dec 2014 (Local Time) from CYJT Reporting Station
Broken Clouds Broken Clouds  
Wind Chill: 27°   Ceiling: 2200
Heat Index: 27°   Visibility: 15mi
Dew Point: 21°   Wind: 0mph
Humidity: 80%   Direction: NA
Pressure: 30.39"   Gusts: NA
Location:  48.55°N, 58.58°W
Report Text: CYJT 220400Z 00000KT 15SM BKN022 M03/M06 A3039 RMK SC7 SLP292
Loading
Personal Weather Stations






























Interactive Weather Map New forecast layout! Learn more

10-Day Weather Forecast

Advertisements
Track Severe Weather on mobile